createdAt,value
2022-08-10T00:00:50.462Z,100053.45
2022-08-10T00:03:42.680Z,100049.95
2022-08-10T00:06:34.953Z,100046.95
2022-08-10T00:09:29.235Z,100046.97
2022-08-10T00:12:21.621Z,100053.30
2022-08-10T00:15:44.097Z,100051.90
2022-08-10T00:18:35.741Z,100049.26
2022-08-10T00:21:30.120Z,100049.24
2022-08-10T00:24:15.684Z,100049.58
2022-08-10T00:27:58.594Z,100047.80
2022-08-10T00:30:21.692Z,100046.42
2022-08-10T00:33:16.478Z,100051.89
2022-08-10T00:36:11.241Z,100049.64
2022-08-10T00:39:09.638Z,100051.27
2022-08-10T00:42:10.534Z,100051.42
2022-08-10T00:45:03.627Z,100050.55
2022-08-10T00:47:56.065Z,100052.88
2022-08-10T00:50:51.435Z,100048.29
2022-08-10T00:53:44.403Z,100043.02
2022-08-10T00:57:17.563Z,100040.71
2022-08-10T00:59:58.207Z,100039.15
2022-08-10T01:02:52.403Z,100038.65
2022-08-10T01:05:53.669Z,100043.40
2022-08-10T01:08:53.031Z,100044.31
2022-08-10T01:12:47.624Z,100045.73
2022-08-10T01:15:18.088Z,100048.00
2022-08-10T01:18:16.239Z,100049.23
2022-08-10T01:21:44.466Z,100048.91
2022-08-10T01:25:12.116Z,100042.40
2022-08-10T01:28:16.295Z,100044.52
2022-08-10T01:31:17.478Z,100047.73
2022-08-10T01:34:14.519Z,100048.45
2022-08-10T01:37:18.888Z,100047.76
2022-08-10T01:40:16.898Z,100045.65
2022-08-10T01:43:16.428Z,100047.40
2022-08-10T01:46:13.380Z,100048.63
2022-08-10T01:49:13.082Z,100050.38
2022-08-10T01:52:08.721Z,100051.11
2022-08-10T01:55:14.582Z,100045.67
2022-08-10T01:58:08.775Z,100047.24
2022-08-10T02:01:05.092Z,100044.80
2022-08-10T02:04:05.303Z,100043.92
2022-08-10T02:06:59.034Z,100050.78
2022-08-10T02:09:54.616Z,100053.26
2022-08-10T02:12:48.862Z,100055.38
2022-08-10T02:16:01.688Z,100058.02
2022-08-10T02:18:56.475Z,100064.16
2022-08-10T02:22:35.353Z,100066.63
2022-08-10T02:25:04.303Z,100064.51
2022-08-10T02:27:57.088Z,100069.27
2022-08-10T02:30:52.654Z,100072.95
2022-08-10T02:33:57.395Z,100065.39
2022-08-10T02:36:55.979Z,100066.10
2022-08-10T02:39:48.398Z,100064.85
2022-08-10T02:45:20.000Z,100056.06
2022-08-10T02:46:07.225Z,100054.31
2022-08-10T02:49:06.754Z,100057.65
2022-08-10T02:52:07.476Z,100061.00
2022-08-10T02:55:17.909Z,100070.52
2022-08-10T02:58:18.664Z,100063.65
2022-08-10T03:01:14.580Z,100064.52
2022-08-10T03:04:10.317Z,100061.54
2022-08-10T03:07:06.265Z,100064.88
2022-08-10T03:09:59.249Z,100069.29
2022-08-10T03:12:54.953Z,100068.75
2022-08-10T03:15:49.253Z,100073.50
2022-08-10T03:18:24.741Z,100076.83
2022-08-10T03:21:13.539Z,100069.45
2022-08-10T03:24:02.734Z,100075.25
2022-08-10T03:27:15.632Z,100077.71
2022-08-10T03:30:31.822Z,100077.18
2022-08-10T03:33:23.900Z,100080.35
2022-08-10T03:36:42.356Z,100082.29
2022-08-10T03:39:31.155Z,100085.98
2022-08-10T03:42:28.284Z,100089.84
2022-08-10T03:45:21.330Z,100094.42
2022-08-10T03:48:14.638Z,100099.16
2022-08-10T03:51:08.100Z,100096.18
2022-08-10T03:54:04.778Z,100091.06
2022-08-10T03:56:58.847Z,100094.41
2022-08-10T03:59:55.869Z,100094.77
2022-08-10T04:02:49.672Z,100100.90
2022-08-10T04:05:42.208Z,100095.80
2022-08-10T04:08:35.057Z,100092.25
2022-08-10T04:11:27.207Z,100092.56
2022-08-10T04:14:47.138Z,100094.27
2022-08-10T04:17:57.178Z,100092.83
2022-08-10T04:20:47.140Z,100092.11
2022-08-10T04:23:43.141Z,100094.72
2022-08-10T04:26:35.464Z,100095.56
2022-08-10T04:29:27.902Z,100096.76
2022-08-10T04:32:23.441Z,100097.23
2022-08-10T04:35:18.007Z,100104.60
2022-08-10T04:38:11.991Z,100098.02
2022-08-10T04:41:04.755Z,100096.17
2022-08-10T04:43:56.867Z,100100.83
2022-08-10T04:46:58.045Z,100106.34
2022-08-10T04:49:54.054Z,100105.51
2022-08-10T04:52:47.881Z,100111.59
2022-08-10T04:55:39.994Z,100112.55
2022-08-10T04:58:32.889Z,100113.13
2022-08-10T05:01:25.163Z,100111.64
2022-08-10T05:04:36.643Z,100111.61
2022-08-10T05:07:29.892Z,100115.03
2022-08-10T05:10:22.403Z,100115.60
2022-08-10T05:13:14.697Z,100115.20
2022-08-10T05:16:07.760Z,100107.85
2022-08-10T05:18:59.857Z,100107.92
2022-08-10T05:22:03.344Z,100108.02
2022-08-10T05:24:57.049Z,100106.95
2022-08-10T05:27:51.070Z,100109.14
2022-08-10T05:30:43.758Z,100113.66
2022-08-10T05:33:35.735Z,100113.89
2022-08-10T05:36:28.551Z,100116.98
2022-08-10T05:39:04.113Z,100113.36
2022-08-10T05:41:57.164Z,100117.30
2022-08-10T05:44:53.399Z,100117.26
2022-08-10T05:48:41.801Z,100121.62
2022-08-10T05:50:57.875Z,100119.52
2022-08-10T05:54:01.648Z,100123.70
2022-08-10T05:56:58.504Z,100121.40
2022-08-10T06:00:33.640Z,100127.07
2022-08-10T06:03:09.143Z,100121.88
2022-08-10T06:06:05.446Z,100121.04
2022-08-10T06:09:01.095Z,100121.13
2022-08-10T06:12:26.291Z,100117.05
2022-08-10T06:15:10.288Z,100113.71
2022-08-10T06:18:15.970Z,100112.02
2022-08-10T06:21:02.870Z,100104.88
2022-08-10T06:23:56.331Z,100107.71
2022-08-10T06:26:49.197Z,100106.27
2022-08-10T06:29:44.893Z,100108.42
2022-08-10T06:32:37.929Z,100106.20
2022-08-10T06:35:23.935Z,100108.77
2022-08-10T06:38:18.387Z,100108.91
2022-08-10T06:41:09.730Z,100106.16
2022-08-10T06:44:04.921Z,100108.73
2022-08-10T06:46:59.718Z,100105.06
2022-08-10T06:50:00.025Z,100105.08
2022-08-10T06:52:39.412Z,100104.32
2022-08-10T06:55:50.286Z,100104.48
2022-08-10T06:58:52.441Z,100098.82
2022-08-10T07:01:51.356Z,100100.91
2022-08-10T07:04:47.906Z,100100.07
2022-08-10T07:07:44.263Z,100102.27
2022-08-10T07:10:41.851Z,100101.16
2022-08-10T07:14:16.084Z,100104.26
2022-08-10T07:16:54.732Z,100100.66
2022-08-10T07:19:52.193Z,100106.25
2022-08-10T07:23:08.275Z,100102.95
2022-08-10T07:26:02.931Z,100096.77
2022-08-10T07:28:56.599Z,100095.25
2022-08-10T07:31:55.947Z,100095.17
2022-08-10T07:34:53.668Z,100094.92
2022-08-10T07:37:49.595Z,100090.50
2022-08-10T07:40:43.481Z,100088.61
2022-08-10T07:43:39.489Z,100090.88
2022-08-10T07:46:52.523Z,100095.47
2022-08-10T07:49:46.697Z,100095.48
2022-08-10T07:52:40.987Z,100095.10
2022-08-10T07:56:03.506Z,100092.98
2022-08-10T07:58:52.684Z,100092.86
2022-08-10T08:01:51.394Z,100088.02
2022-08-10T08:04:45.303Z,100089.73
2022-08-10T08:07:39.953Z,100086.36
2022-08-10T08:10:32.875Z,100087.70
2022-08-10T08:13:26.477Z,100082.98
2022-08-10T08:16:22.207Z,100091.02
2022-08-10T08:19:37.923Z,100090.85
2022-08-10T08:24:06.837Z,100083.98
2022-08-10T08:25:42.519Z,100079.94
2022-08-10T08:28:28.395Z,100077.10
2022-08-10T08:31:23.028Z,100077.15
2022-08-10T08:34:17.139Z,100075.29
2022-08-10T08:37:11.518Z,100078.11
2022-08-10T08:40:05.749Z,100073.52
2022-08-10T08:43:18.131Z,100070.03
2022-08-10T08:46:32.274Z,100069.05
2022-08-10T08:50:08.055Z,100064.21
2022-08-10T08:52:48.996Z,100065.03
2022-08-10T08:56:04.546Z,100068.30
2022-08-10T08:59:12.644Z,100065.23
2022-08-10T09:02:19.322Z,100064.23
2022-08-10T09:05:26.162Z,100056.83
2022-08-10T09:08:38.820Z,100060.67
2022-08-10T09:11:47.064Z,100053.10
2022-08-10T09:14:45.525Z,100052.73
2022-08-10T09:17:48.798Z,100054.31
2022-08-10T09:20:48.018Z,100053.71
2022-08-10T09:24:02.155Z,100049.64
2022-08-10T09:27:14.559Z,100051.22
2022-08-10T09:30:10.637Z,100046.74
2022-08-10T09:36:26.378Z,100041.30
2022-08-10T09:36:32.545Z,100035.70
2022-08-10T09:40:56.379Z,100035.81
2022-08-10T09:43:02.018Z,100034.80
2022-08-10T09:46:11.879Z,100025.11
2022-08-10T09:49:16.068Z,100025.09
2022-08-10T09:52:18.858Z,100015.61
2022-08-10T09:55:18.232Z,100013.79
2022-08-10T09:58:23.584Z,100019.18
2022-08-10T10:01:58.266Z,100020.05
2022-08-10T10:04:44.313Z,100021.25
2022-08-10T10:07:39.720Z,100016.98
2022-08-10T10:10:46.579Z,100008.60
2022-08-10T10:14:02.576Z,100001.28
2022-08-10T10:17:03.089Z,99998.80
2022-08-10T10:20:08.195Z,99995.38
2022-08-10T10:23:09.003Z,99998.09
2022-08-10T10:26:15.880Z,99990.33
2022-08-10T10:29:55.668Z,99996.10
2022-08-10T10:32:44.681Z,99991.59
2022-08-10T10:35:42.542Z,99993.20
2022-08-10T10:38:40.106Z,99998.58
2022-08-10T10:42:03.528Z,99993.37
2022-08-10T10:45:12.525Z,99995.73
2022-08-10T10:48:08.323Z,99993.65
2022-08-10T10:51:10.817Z,99979.45
2022-08-10T10:54:13.139Z,99979.64
2022-08-10T10:57:11.356Z,99975.19
2022-08-10T11:00:07.886Z,99971.27
2022-08-10T11:03:14.058Z,99971.00
2022-08-10T11:06:19.929Z,99974.66
2022-08-10T11:09:11.483Z,99973.80
2022-08-10T11:12:02.836Z,99966.06
2022-08-10T11:15:02.279Z,99959.27
2022-08-10T11:18:00.305Z,99960.23
2022-08-10T11:20:59.519Z,99956.42
2022-08-10T11:24:47.213Z,99953.00
2022-08-10T11:27:25.571Z,99950.86
2022-08-10T11:30:21.906Z,99954.17
2022-08-10T11:33:30.981Z,99958.86
2022-08-10T11:36:32.810Z,99959.18
2022-08-10T11:39:35.865Z,99958.56
2022-08-10T11:42:40.670Z,99959.06
2022-08-10T11:45:36.835Z,99959.92
2022-08-10T11:48:53.853Z,99956.05
2022-08-10T11:51:49.941Z,99948.51
2022-08-10T11:54:47.760Z,99944.44
2022-08-10T11:57:53.788Z,99939.20
2022-08-10T12:00:47.621Z,99932.90
2022-08-10T12:03:43.311Z,99932.81
2022-08-10T12:06:54.759Z,99932.48
2022-08-10T12:10:08.526Z,99932.80
2022-08-10T12:13:08.197Z,99935.99
2022-08-10T12:16:07.554Z,99930.15
2022-08-10T12:18:55.017Z,99927.55
2022-08-10T12:21:52.644Z,99920.27
2022-08-10T12:24:50.658Z,99927.47
2022-08-10T12:27:48.117Z,99929.52
2022-08-10T12:30:39.962Z,99923.25
2022-08-10T12:34:01.377Z,99924.25
2022-08-10T12:37:02.089Z,99923.07
2022-08-10T12:40:33.953Z,99925.23
2022-08-10T12:44:05.266Z,99930.98
2022-08-10T12:46:21.530Z,99928.61
2022-08-10T12:49:22.310Z,99928.28
2022-08-10T12:52:20.792Z,99927.20
2022-08-10T12:55:15.210Z,99921.91
2022-08-10T12:58:57.547Z,99916.30
2022-08-10T13:02:06.384Z,99917.39
2022-08-10T13:04:45.967Z,99914.25
2022-08-10T13:08:25.259Z,99911.48
2022-08-10T13:10:56.464Z,99904.25
2022-08-10T13:13:50.214Z,99903.80
2022-08-10T13:16:48.217Z,99902.52
2022-08-10T13:19:55.337Z,99898.79
2022-08-10T13:22:52.736Z,99892.05
2022-08-10T13:25:48.585Z,99891.08
2022-08-10T13:28:49.644Z,99892.83
2022-08-10T13:32:09.349Z,99889.20
2022-08-10T13:35:00.140Z,99883.96
2022-08-10T13:37:56.003Z,99879.06
2022-08-10T13:40:37.649Z,99875.52
2022-08-10T13:43:11.413Z,99868.29
2022-08-10T13:46:07.567Z,99867.51
2022-08-10T13:49:16.261Z,99859.00
2022-08-10T13:52:02.111Z,99863.17
2022-08-10T13:54:55.502Z,99856.85
2022-08-10T13:57:56.615Z,99854.90
2022-08-10T14:00:51.682Z,99855.71
2022-08-10T14:03:46.928Z,99856.21
2022-08-10T14:06:42.877Z,99850.53
2022-08-10T14:09:35.642Z,99849.72
2022-08-10T14:12:32.198Z,99842.30
2022-08-10T14:15:33.433Z,99837.89
2022-08-10T14:18:26.839Z,99841.07
2022-08-10T14:21:22.700Z,99838.70
2022-08-10T14:24:24.990Z,99834.91
2022-08-10T14:27:20.390Z,99828.63
2022-08-10T14:30:17.740Z,99828.50
2022-08-10T14:33:14.717Z,99824.76
2022-08-10T14:36:20.655Z,99828.59
2022-08-10T14:39:24.750Z,99832.88
2022-08-10T14:42:27.561Z,99831.35
2022-08-10T14:45:26.016Z,99825.02
2022-08-10T14:48:31.709Z,99823.77
2022-08-10T14:51:08.051Z,99827.73
2022-08-10T14:54:04.930Z,99836.70
2022-08-10T14:57:10.635Z,99835.35
2022-08-10T15:00:25.419Z,99834.98
2022-08-10T15:04:02.251Z,99834.98
2022-08-10T15:06:38.139Z,99837.43
2022-08-10T15:10:00.534Z,99844.39
2022-08-10T15:12:58.918Z,99845.52
2022-08-10T15:16:11.294Z,99851.80
2022-08-10T15:20:00.824Z,99854.11
2022-08-10T15:22:36.990Z,99852.48
2022-08-10T15:25:36.742Z,99844.45
2022-08-10T15:29:22.258Z,99847.26
2022-08-10T15:31:57.990Z,99847.16
2022-08-10T15:35:09.367Z,99847.25
2022-08-10T15:38:07.525Z,99842.54
2022-08-10T15:41:01.973Z,99839.69
2022-08-10T15:43:58.654Z,99840.75
2022-08-10T15:46:53.605Z,99833.77
2022-08-10T15:49:51.751Z,99836.83
2022-08-10T15:53:02.909Z,99831.71
2022-08-10T15:55:59.862Z,99832.89
2022-08-10T15:58:39.757Z,99835.34
2022-08-10T16:02:13.288Z,99836.45
2022-08-10T16:04:59.817Z,99839.77
2022-08-10T16:07:57.791Z,99841.08
2022-08-10T16:10:55.159Z,99836.08
2022-08-10T16:13:59.531Z,99842.05
2022-08-10T16:16:56.573Z,99841.05
2022-08-10T16:19:54.309Z,99841.83
2022-08-10T16:22:48.397Z,99840.33
2022-08-10T16:25:48.605Z,99842.38
2022-08-10T16:28:47.982Z,99851.67
2022-08-10T16:31:49.037Z,99844.84
2022-08-10T16:34:42.908Z,99851.77
2022-08-10T16:37:57.703Z,99852.52
2022-08-10T16:40:52.886Z,99853.05
2022-08-10T16:43:49.564Z,99853.54
2022-08-10T16:46:45.141Z,99856.62
2022-08-10T16:49:41.395Z,99856.92
2022-08-10T16:52:35.647Z,99855.35
2022-08-10T16:55:49.366Z,99853.25
2022-08-10T16:58:45.366Z,99848.66
2022-08-10T17:01:40.679Z,99849.58
2022-08-10T17:04:35.145Z,99850.42
2022-08-10T17:07:31.442Z,99852.33
2022-08-10T17:10:08.898Z,99858.42
2022-08-10T17:13:04.072Z,99855.98
2022-08-10T17:16:01.839Z,99854.89
2022-08-10T17:18:55.902Z,99855.84
2022-08-10T17:21:52.550Z,99856.73
2022-08-10T17:24:51.338Z,99856.37
2022-08-10T17:28:04.170Z,99856.08
2022-08-10T17:31:05.076Z,99851.16
2022-08-10T17:34:20.333Z,99849.95
2022-08-10T17:37:18.154Z,99844.94
2022-08-10T17:40:16.012Z,99845.98
2022-08-10T17:43:09.083Z,99850.38
2022-08-10T17:46:03.551Z,99850.96
2022-08-10T17:48:56.712Z,99849.47
2022-08-10T17:51:54.070Z,99849.76
2022-08-10T17:54:48.485Z,99853.61
2022-08-10T17:57:42.076Z,99860.27
2022-08-10T18:00:41.649Z,99863.44
2022-08-10T18:03:44.935Z,99867.53
2022-08-10T18:06:38.488Z,99864.95
2022-08-10T18:09:33.722Z,99865.50
2022-08-10T18:12:36.069Z,99867.86
2022-08-10T18:15:32.597Z,99866.88
2022-08-10T18:18:28.238Z,99875.45
2022-08-10T18:21:23.913Z,99879.05
2022-08-10T18:24:22.417Z,99884.44
2022-08-10T18:27:15.781Z,99891.27
2022-08-10T18:30:10.140Z,99891.20
2022-08-10T18:33:04.287Z,99889.62
2022-08-10T18:36:01.915Z,99894.54
2022-08-10T18:38:53.532Z,99895.02
2022-08-10T18:42:00.171Z,99895.89
2022-08-10T18:45:05.888Z,99899.11
2022-08-10T18:48:02.920Z,99899.55
2022-08-10T18:50:55.925Z,99896.11
2022-08-10T18:53:51.687Z,99905.78
2022-08-10T18:56:56.456Z,99902.17
2022-08-10T19:00:14.063Z,99899.03
2022-08-10T19:03:20.555Z,99896.64
2022-08-10T19:06:31.110Z,99894.86
2022-08-10T19:09:46.632Z,99892.16
2022-08-10T19:12:49.769Z,99893.54
2022-08-10T19:15:54.666Z,99896.86
2022-08-10T19:19:00.958Z,99901.20
2022-08-10T19:22:02.244Z,99905.63
2022-08-10T19:25:05.199Z,99911.48
2022-08-10T19:28:13.209Z,99917.79
2022-08-10T19:31:11.295Z,99918.70
2022-08-10T19:34:21.024Z,99920.40
2022-08-10T19:37:32.403Z,99922.39
2022-08-10T19:40:46.421Z,99928.06
2022-08-10T19:44:00.480Z,99928.06
2022-08-10T19:47:00.445Z,99928.48
2022-08-10T19:49:58.699Z,99921.59
2022-08-10T19:53:00.502Z,99922.86
2022-08-10T19:56:13.371Z,99925.21
2022-08-10T20:00:16.599Z,99925.49
2022-08-10T20:02:50.296Z,99929.63
2022-08-10T20:06:13.113Z,99930.08
2022-08-10T20:09:11.942Z,99927.85
2022-08-10T20:12:07.773Z,99925.94
2022-08-10T20:15:07.461Z,99928.10
2022-08-10T20:18:13.979Z,99927.15
2022-08-10T20:21:14.873Z,99927.51
2022-08-10T20:24:13.398Z,99923.25
2022-08-10T20:27:59.232Z,99926.23
2022-08-10T20:30:28.690Z,99924.84
2022-08-10T20:33:28.690Z,99926.65
2022-08-10T20:36:28.591Z,99927.73
2022-08-10T20:39:28.268Z,99925.23
2022-08-10T20:42:28.659Z,99929.41
2022-08-10T20:45:27.250Z,99928.91
2022-08-10T20:48:27.438Z,99931.11
2022-08-10T20:51:58.485Z,99929.77
2022-08-10T20:54:46.149Z,99927.59
2022-08-10T20:58:01.837Z,99922.39
2022-08-10T21:01:09.755Z,99920.07
2022-08-10T21:04:14.317Z,99919.73
2022-08-10T21:07:57.723Z,99918.29
2022-08-10T21:10:57.738Z,99916.82
2022-08-10T21:14:02.250Z,99917.13
2022-08-10T21:17:10.780Z,99920.31
2022-08-10T21:20:47.548Z,99925.95
2022-08-10T21:23:56.727Z,99922.83
2022-08-10T21:27:02.849Z,99920.06
2022-08-10T21:30:09.230Z,99920.75
2022-08-10T21:33:07.658Z,99917.54
2022-08-10T21:36:10.921Z,99925.77
2022-08-10T21:39:13.764Z,99932.08
2022-08-10T21:42:28.503Z,99933.08
2022-08-10T21:45:59.615Z,99929.12
2022-08-10T21:49:15.594Z,99925.70
2022-08-10T21:52:33.518Z,99922.61
2022-08-10T21:55:57.735Z,99923.07
2022-08-10T21:59:16.234Z,99919.95
2022-08-10T22:02:31.913Z,99920.54
2022-08-10T22:05:48.590Z,99913.71
2022-08-10T22:09:02.110Z,99911.42
2022-08-10T22:12:31.310Z,99910.19
2022-08-10T22:16:05.401Z,99908.78
2022-08-10T22:19:20.149Z,99914.06
2022-08-10T22:22:37.666Z,99913.02
2022-08-10T22:26:08.435Z,99914.30
2022-08-10T22:29:42.418Z,99922.25
2022-08-10T22:33:01.386Z,99929.90
2022-08-10T22:36:32.511Z,99929.44
2022-08-10T22:40:07.427Z,99929.91
2022-08-10T22:43:36.185Z,99927.91
2022-08-10T22:46:51.267Z,99926.23
2022-08-10T22:49:42.894Z,99925.98
2022-08-10T22:53:03.153Z,99920.75
2022-08-10T22:56:14.960Z,99914.23
2022-08-10T22:59:09.801Z,99915.17
2022-08-10T23:02:09.345Z,99917.48
2022-08-10T23:05:08.212Z,99917.73
2022-08-10T23:08:03.925Z,99915.88
2022-08-10T23:10:58.049Z,99919.27
2022-08-10T23:13:55.152Z,99914.52
2022-08-10T23:17:07.468Z,99913.30
2022-08-10T23:20:06.118Z,99911.54
2022-08-10T23:23:08.903Z,99907.80
2022-08-10T23:26:04.514Z,99912.20
2022-08-10T23:29:05.245Z,99915.25
2022-08-10T23:32:07.451Z,99914.45
2022-08-10T23:36:31.842Z,99913.63
2022-08-10T23:38:06.581Z,99912.79
2022-08-10T23:41:02.472Z,99910.85
2022-08-10T23:44:06.604Z,99913.17
2022-08-10T23:47:04.115Z,99911.77
2022-08-10T23:50:01.635Z,99907.73
2022-08-10T23:52:56.201Z,99908.45
2022-08-10T23:55:49.760Z,99909.33
2022-08-10T23:58:45.542Z,99905.67
